Date,TemperatureHighF,TemperatureAvgF,TemperatureLowF,DewpointHighF,DewpointAvgF,DewpointLowF,HumidityHigh,HumidityAvg,HumidityLow,PressureMaxIn,PressureMinIn,WindSpeedMaxMPH,WindSpeedAvgMPH,GustSpeedMaxMPH,PrecipitationSumIn
2013-1-1,34.7,33.1,29.3,33.2,32.1,28.5,97,96,93,30.49,30.35,7,0,7,0.10
2013-1-2,44.6,31.1,23.6,35.0,27.8,22.8,97,89,57,30.35,30.21,7,0,7,0.04
2013-1-3,42.0,33.3,23.6,36.2,28.1,22.5,96,83,55,30.22,30.12,9,1,11,0.01
2013-1-4,44.9,39.8,36.7,42.3,38.1,34.3,96,94,89,30.35,30.18,13,1,13,0.00
2013-1-5,40.7,37.6,35.9,36.0,33.6,31.6,91,85,78,30.21,30.15,7,1,7,0.00
2013-1-6,44.0,39.5,34.5,42.7,37.7,32.9,96,93,88,30.24,30.02,16,1,16,0.25
2013-1-7,50.4,46.4,43.4,49.3,45.2,42.2,96,96,94,30.20,29.94,14,2,16,0.82
2013-1-8,52.9,48.6,42.8,50.7,47.2,42.0,97,95,84,30.19,29.84,20,3,20,0.27
2013-1-9,52.7,44.8,33.9,48.0,41.8,33.1,97,90,82,29.99,29.66,25,3,25,0.82
2013-1-10,40.4,35.7,32.0,38.2,34.9,31.2,98,97,89,30.11,29.98,6,0,6,0.04
2013-1-11,39.2,33.2,26.5,34.8,30.8,25.5,98,91,70,30.32,30.11,12,1,12,0.00
2013-1-12,37.9,29.8,24.5,32.9,27.8,23.5,97,92,73,30.43,30.31,11,0,11,0.00
2013-1-13,34.4,26.9,20.1,29.8,25.0,19.1,97,93,79,30.50,30.41,10,0,10,0.00
2013-1-14,33.7,31.1,27.8,32.3,29.4,26.3,96,93,89,30.57,30.49,11,1,11,0.00
2013-1-15,36.4,33.8,31.4,34.8,32.7,30.3,97,96,93,30.68,30.57,7,0,7,0.01
2013-1-16,35.1,33.4,31.8,33.5,32.2,30.7,97,95,93,30.66,30.50,9,1,9,0.00
2013-1-17,36.6,32.9,30.4,35.0,32.0,29.4,97,96,93,30.51,30.31,8,1,8,0.00
2013-1-18,45.1,34.7,28.9,38.8,32.5,27.9,97,92,77,30.32,30.25,13,0,13,0.00
2013-1-19,42.6,33.7,30.3,36.9,32.0,29.3,97,94,80,30.36,30.28,6,0,6,0.00
2013-1-20,42.8,32.9,29.7,35.9,31.1,28.7,96,93,76,30.37,30.25,9,1,9,0.00
2013-1-21,43.5,33.6,25.8,34.7,29.5,24.8,97,86,69,30.28,30.13,8,1,10,0.01
2013-1-22,39.9,33.9,28.7,31.7,28.7,26.0,90,81,70,30.15,29.93,9,1,9,0.00
2013-1-23,35.9,35.1,34.5,34.4,31.2,27.9,95,86,74,30.20,29.88,12,1,12,0.11
2013-1-24,43.9,39.0,34.9,42.6,37.6,33.9,96,95,89,30.24,30.09,13,1,13,0.18
2013-1-25,50.9,45.2,40.7,48.1,43.7,39.7,97,95,88,30.10,29.94,11,1,11,0.01
2013-1-26,46.0,42.3,40.0,43.3,40.9,39.0,96,95,89,30.08,29.91,13,1,13,0.21
2013-1-27,41.9,39.8,37.3,40.4,38.7,36.3,97,96,93,30.12,30.03,7,0,7,0.32
2013-1-28,44.0,41.4,38.4,42.9,40.4,37.6,97,96,94,30.18,30.07,11,0,11,0.74
2013-1-29,48.3,45.1,43.5,46.2,43.9,42.4,97,96,91,30.44,30.17,11,1,11,0.18
2013-1-30,49.2,46.3,44.2,48.1,45.2,43.1,96,96,95,30.44,30.39,9,1,9,0.35
2013-1-31,48.9,46.4,43.2,47.5,45.4,42.3,97,96,93,30.44,30.33,6,0,6,0.08
2013-2-1,52.8,46.8,43.9,47.9,44.7,42.3,97,93,79,30.38,30.29,11,1,11,0.00
2013-2-2,53.1,41.0,35.7,46.2,39.5,34.6,97,95,75,30.33,30.23,6,0,6,0.01
2013-2-3,46.6,42.6,36.8,43.8,41.1,35.9,97,94,89,30.33,30.23,6,0,6,0.00
2013-2-4,51.7,46.3,42.6,46.4,43.5,41.4,96,90,80,30.23,29.93,9,0,9,0.00
2013-2-5,55.1,47.2,44.4,46.7,43.8,42.2,94,88,65,30.01,29.88,19,3,19,0.11
2013-2-6,49.1,46.1,41.6,44.4,42.8,40.0,95,88,78,30.07,29.80,20,3,20,0.13
2013-2-7,50.2,41.4,30.0,40.7,37.3,28.9,96,86,58,30.18,29.86,15,1,15,0.01
2013-2-8,49.1,33.9,28.7,41.4,31.7,27.7,97,92,64,30.30,30.17,14,0,14,0.00
2013-2-9,47.7,41.1,32.9,43.7,38.8,31.6,96,92,82,30.30,30.24,6,0,6,0.00
2013-2-10,46.8,41.0,34.1,42.6,38.0,33.1,97,90,73,30.36,30.30,6,0,6,0.00
2013-2-11,46.9,43.2,40.6,43.3,41.1,38.6,96,92,84,30.38,30.32,10,1,10,0.07
2013-2-12,51.0,46.3,43.3,49.0,45.1,42.2,96,96,91,30.45,30.37,7,0,7,0.14
2013-2-13,50.8,45.2,36.1,46.4,43.0,34.9,97,92,76,30.52,30.39,10,0,10,0.01
2013-2-14,47.2,41.6,34.7,45.6,40.3,33.7,97,95,89,30.56,30.52,9,0,9,0.01
2013-2-15,59.2,48.0,39.4,49.5,44.4,38.2,96,88,69,30.52,30.19,13,2,13,0.00
2013-2-16,52.2,43.8,37.6,46.4,41.4,36.4,97,91,71,30.27,30.19,23,2,23,0.07
2013-2-17,48.7,40.1,32.6,41.2,37.1,31.6,97,89,68,30.29,30.10,10,1,10,0.00
2013-2-18,45.7,40.9,36.4,39.5,37.4,35.4,96,88,72,30.10,29.73,15,2,15,0.05
2013-2-19,54.0,43.1,32.9,42.2,38.3,31.6,96,84,54,30.00,29.70,13,1,13,0.03
2013-2-20,45.7,38.6,30.4,41.6,36.6,29.4,97,93,81,30.08,29.99,15,1,15,0.18
2013-2-21,44.8,42.3,39.9,42.6,40.8,38.7,96,94,89,30.15,30.04,10,1,10,0.30
2013-2-22,47.3,42.7,36.3,45.9,41.0,35.0,96,94,85,30.14,29.84,26,3,26,0.80
2013-2-23,46.7,40.1,35.2,42.7,37.8,34.2,97,92,73,30.42,30.03,16,1,16,0.42
2013-2-24,49.3,43.5,37.9,40.4,37.8,36.0,96,81,64,30.43,30.00,19,3,19,0.00
2013-2-25,48.2,42.2,38.0,41.3,38.9,36.3,95,88,68,30.36,29.98,24,3,24,0.35
2013-2-26,48.0,41.7,33.9,40.4,37.1,32.9,96,84,66,30.38,30.23,17,2,17,0.01
2013-2-27,50.6,44.9,41.9,45.6,41.0,39.1,95,86,77,30.29,30.22,19,1,19,0.03
2013-2-28,55.3,50.6,46.0,53.0,49.2,44.7,96,95,91,30.39,30.17,15,2,15,0.64
2013-3-1,58.3,53.7,48.3,54.1,51.3,47.1,96,92,81,30.42,30.30,15,1,15,0.01
2013-3-2,55.7,46.8,37.1,51.6,44.9,35.5,97,93,84,30.31,30.13,12,1,17,0.04
2013-3-3,50.8,39.9,32.4,41.7,36.6,31.6,98,89,67,30.31,30.26,15,1,15,0.02
2013-3-4,59.2,41.3,29.3,37.6,31.4,25.2,98,74,28,30.28,29.90,13,1,13,0.01
2013-3-5,47.7,41.7,31.4,42.7,39.1,29.6,96,91,77,29.91,29.67,15,1,15,0.14
2013-3-6,45.1,42.3,40.1,43.6,41.1,39.0,96,96,91,29.93,29.55,12,0,12,0.53
2013-3-7,57.6,46.7,34.5,43.2,39.7,33.2,96,79,42,30.06,29.93,16,2,16,0.00
2013-3-8,56.4,42.6,32.0,44.2,38.2,31.0,97,86,59,30.22,30.05,13,1,13,0.00
2013-3-9,58.7,42.1,30.2,45.0,37.1,29.2,97,84,49,30.50,30.22,12,1,12,0.00
2013-3-10,47.9,41.8,32.4,45.0,39.7,31.0,96,92,83,30.50,30.41,4,0,4,0.05
2013-3-11,54.5,48.9,44.7,49.2,46.4,43.4,96,91,78,30.43,30.22,9,1,11,0.04
2013-3-12,57.9,52.9,49.9,52.2,49.8,48.3,96,89,74,30.22,30.14,12,1,12,0.01
2013-3-13,60.5,53.2,47.5,51.1,48.7,46.4,96,85,67,30.20,30.07,10,1,10,0.02
2013-3-14,53.7,50.7,47.6,49.7,47.4,45.7,96,89,76,30.18,30.03,10,1,12,0.02
2013-3-15,61.8,53.6,0.0,53.0,49.4,0.0,95,86,68,30.21,30.17,13,1,13,0.00
2013-3-16,50.7,46.1,39.8,47.5,43.5,36.6,96,91,75,30.17,30.00,21,2,21,0.37
2013-3-17,48.6,41.2,35.2,40.4,36.4,33.5,96,84,60,30.28,30.10,20,2,20,0.37
2013-3-18,54.3,42.9,34.6,44.0,38.3,33.0,95,84,53,30.26,30.18,11,1,11,0.08
2013-3-19,49.1,39.4,32.4,44.6,36.8,31.1,97,91,75,30.18,29.63,14,1,0,0.26
2013-3-20,52.4,46.3,36.6,50.3,43.2,35.1,97,89,75,30.13,29.46,22,4,0,0.68
2013-3-21,46.6,40.8,35.5,40.6,37.2,33.8,96,87,73,30.28,30.13,23,3,0,0.29
2013-3-22,46.4,37.7,31.8,39.9,35.0,30.8,97,90,71,30.39,30.28,16,1,0,0.09
2013-3-23,52.7,39.6,31.9,38.8,33.4,28.6,97,81,44,30.40,30.28,10,1,0,0.00
2013-3-24,58.2,44.0,34.3,39.4,35.0,32.6,95,74,39,30.29,30.09,10,1,0,0.00
2013-3-25,65.5,48.9,35.1,42.1,38.3,33.5,95,71,39,30.10,29.90,9,1,0,0.00
2013-3-26,59.3,52.2,45.1,47.4,44.7,40.6,94,77,60,30.02,29.96,9,1,0,0.01
2013-3-27,65.4,52.5,46.0,50.0,46.1,39.8,95,81,42,30.00,29.89,13,1,0,0.33
2013-3-28,64.5,54.0,48.0,53.4,48.1,42.6,96,82,46,30.14,29.99,13,1,0,0.26
2013-3-29,69.5,52.5,46.9,53.4,48.4,45.1,95,87,48,30.22,30.13,10,0,0,0.00
2013-3-30,72.9,56.3,40.2,52.0,46.1,38.5,96,72,45,30.21,29.99,15,2,0,0.00
2013-3-31,75.9,56.0,42.6,51.6,45.9,40.3,93,72,38,30.01,29.89,16,1,0,0.00
2013-4-1,67.2,54.6,47.3,53.8,49.0,44.7,92,82,56,30.17,30.01,15,1,0,0.00
2013-4-2,59.6,53.1,47.6,52.1,48.9,45.1,91,86,73,30.21,30.15,12,1,0,0.00
2013-4-3,67.3,55.9,48.0,53.2,49.3,45.5,91,79,52,30.19,29.90,6,1,0,0.00
2013-4-4,60.2,54.6,51.7,55.8,51.5,48.6,92,89,79,29.90,29.66,17,2,0,0.39
2013-4-5,57.1,53.6,51.3,54.0,50.6,48.7,93,89,79,29.91,29.76,17,3,0,0.53
2013-4-6,58.3,50.9,47.1,49.4,46.6,41.3,93,86,56,29.96,29.76,22,3,0,0.30
2013-4-7,51.9,46.5,41.3,47.9,43.1,39.4,93,88,77,29.95,29.47,16,2,0,0.41
2013-4-8,54.1,46.3,38.9,46.6,42.1,37.3,95,86,64,30.30,29.95,19,1,0,0.00
2013-4-9,56.0,47.5,36.4,47.2,42.3,35.1,96,83,66,30.36,30.22,13,1,0,0.00
2013-4-10,55.4,52.4,47.6,51.7,46.6,42.8,92,81,69,30.33,30.05,15,2,0,0.24
2013-4-11,56.2,48.2,37.8,46.4,42.3,35.1,93,81,56,30.35,30.20,18,2,0,0.07
2013-4-12,52.1,42.6,34.1,46.1,39.6,32.6,95,90,71,30.20,29.81,15,1,0,0.28
2013-4-13,49.9,43.1,35.3,44.2,39.6,33.5,94,88,74,30.07,29.89,19,2,0,0.70
2013-4-14,53.4,42.4,38.6,44.1,40.0,37.0,95,92,60,30.06,29.94,10,0,8,0.24
2013-4-15,58.2,44.5,33.1,44.9,38.6,31.8,96,82,46,30.20,29.96,18,1,0,0.13
2013-4-16,60.2,46.3,35.4,46.9,38.6,32.8,96,78,37,30.40,30.18,18,2,0,0.01
2013-4-17,60.4,47.0,33.6,46.0,39.7,32.2,95,78,46,30.49,30.40,16,2,0,0.00
2013-4-18,55.5,49.4,44.6,49.1,44.0,40.5,92,82,69,30.48,30.35,11,1,0,0.03
2013-4-19,55.0,51.3,49.3,51.1,48.6,46.5,93,91,82,30.28,30.11,15,2,19,0.54
2013-4-20,57.2,49.1,45.5,48.8,45.6,42.3,93,88,68,30.33,30.27,18,2,15,0.07
2013-4-21,56.4,49.1,42.5,47.5,44.3,39.9,93,84,68,30.34,30.24,17,2,0,0.04
2013-4-22,65.8,50.8,36.5,44.5,38.3,30.8,94,67,34,30.47,30.34,15,2,0,0.00
2013-4-23,67.2,45.0,32.4,42.9,35.1,29.0,93,73,26,30.40,30.17,16,1,0,0.00
2013-4-24,73.8,55.3,35.6,43.2,37.3,30.9,92,57,24,30.30,30.03,16,1,0,0.00
2013-4-25,73.0,55.5,39.3,52.4,45.1,36.8,91,71,36,30.18,30.03,18,2,0,0.00
2013-4-26,75.9,57.7,45.9,51.6,44.3,37.3,91,66,26,30.26,30.17,13,2,0,0.00
2013-4-27,59.9,47.0,39.7,50.7,42.7,37.3,92,85,68,30.27,30.22,13,0,0,0.00
2013-4-28,61.6,54.1,50.3,50.0,47.4,43.8,91,79,54,30.26,30.05,18,2,0,0.04
2013-4-29,55.2,49.0,38.5,48.8,40.9,34.5,90,75,49,30.23,30.04,27,4,0,0.16
2013-4-30,56.2,45.4,36.2,40.5,36.4,33.2,95,73,44,30.47,30.23,24,3,0,0.00
2013-5-1,69.7,51.1,30.8,41.1,34.7,28.8,93,60,24,30.55,30.46,14,1,0,0.00
2013-5-2,78.5,60.0,39.2,46.0,39.3,33.0,84,49,21,30.50,30.27,17,2,0,0.00
2013-5-3,77.1,65.9,43.3,51.0,44.6,34.6,84,48,30,30.33,30.16,18,3,0,0.00
2013-5-4,82.7,67.0,46.8,52.5,45.8,38.8,86,50,27,30.16,29.91,20,3,0,0.00
2013-5-5,89.8,68.5,45.2,52.0,45.1,35.3,88,50,15,29.94,29.68,13,1,0,0.00
2013-5-6,76.6,61.0,48.9,59.6,51.7,46.1,90,73,49,29.89,29.78,19,2,0,0.00
2013-5-7,67.0,55.9,52.8,54.9,50.3,48.7,88,82,63,30.04,29.89,17,3,0,0.00
2013-5-8,69.8,57.4,51.6,56.6,50.6,48.2,89,78,60,30.17,30.04,17,2,0,0.00
2013-5-9,75.5,59.8,51.3,59.5,52.2,48.2,90,77,49,30.21,30.08,16,2,0,0.00
2013-5-10,76.2,59.8,48.6,60.2,52.7,46.4,94,79,52,30.21,30.10,16,2,0,0.00
2013-5-11,82.3,64.4,51.4,64.6,54.8,48.4,90,73,39,30.22,30.01,18,2,0,0.00
2013-5-12,71.8,63.4,58.5,62.1,57.8,55.5,92,82,70,30.10,30.03,7,0,0,0.02
2013-5-13,66.0,57.8,43.8,57.3,52.0,41.3,93,82,59,30.23,29.99,32,3,0,0.03
2013-5-14,68.6,54.7,42.3,48.1,43.8,40.1,94,70,37,30.24,30.10,13,1,0,0.00
2013-5-15,58.8,53.5,44.4,53.7,49.1,41.9,92,85,77,30.13,30.01,12,1,0,0.03
2013-5-16,69.6,57.5,52.1,56.8,52.3,49.7,92,84,55,30.01,29.89,15,2,0,0.06
2013-5-17,64.5,54.5,47.7,54.6,50.2,45.7,95,86,59,30.10,29.98,14,1,0,0.14
2013-5-18,61.1,57.9,54.8,52.4,51.2,49.4,90,79,71,30.28,30.15,9,1,0,0.01
2013-5-19,64.7,56.5,48.7,52.2,49.3,45.0,93,78,59,30.41,30.27,17,3,0,0.05
2013-5-20,70.5,56.6,47.6,52.5,48.0,44.5,91,75,43,30.37,29.93,15,2,0,0.00
2013-5-21,55.2,49.2,45.3,49.5,45.6,42.5,93,88,75,29.95,29.83,20,2,0,0.35
2013-5-22,49.8,45.7,44.1,47.6,43.1,41.4,94,91,88,29.95,29.91,10,1,0,0.89
2013-5-23,51.5,48.4,44.8,49.3,46.5,43.0,94,93,91,30.00,29.93,14,1,0,0.79
2013-5-24,59.0,51.4,47.7,54.2,48.8,45.7,95,91,76,30.09,29.96,16,1,0,0.96
2013-5-25,64.5,53.5,45.3,52.7,48.5,43.9,96,85,55,30.08,29.95,13,1,0,0.00
2013-5-26,64.2,56.4,51.2,57.5,52.8,49.2,95,88,71,30.00,29.94,14,1,0,0.43
2013-5-27,64.8,55.4,51.3,59.2,52.6,49.2,93,90,74,29.98,29.71,26,3,0,0.46
2013-5-28,62.4,55.8,51.6,56.2,51.7,49.4,92,86,65,29.92,29.76,15,1,0,0.15
2013-5-29,60.3,56.0,50.2,54.1,50.6,47.2,95,82,70,30.05,29.64,18,3,0,0.71
2013-5-30,62.7,54.7,48.5,53.1,49.3,46.7,94,83,63,30.22,30.05,15,1,0,0.09
2013-5-31,69.7,61.1,48.0,51.8,49.3,46.0,94,67,44,30.34,30.23,13,1,0,0.00
2013-6-1,73.5,59.7,47.4,56.8,50.7,45.2,93,74,46,30.25,30.04,16,2,0,0.00
2013-6-2,68.5,59.1,50.1,56.5,52.4,47.9,93,79,62,30.11,30.04,19,2,0,0.00
2013-6-3,67.3,53.8,46.0,54.8,48.9,43.7,93,84,63,30.14,30.04,17,1,0,0.00
2013-6-4,82.9,64.2,44.3,59.7,52.4,42.4,94,69,39,30.12,29.97,10,2,0,0.00
2013-6-5,76.5,63.3,50.8,64.4,55.9,48.2,92,78,62,30.10,30.00,19,3,0,0.00
2013-6-6,70.7,55.0,49.9,56.4,51.1,47.7,93,87,58,30.07,30.01,12,1,0,0.00
2013-6-7,72.6,60.2,49.3,59.5,52.6,46.9,92,77,52,30.18,30.07,18,2,0,0.00
2013-6-8,72.7,63.2,53.1,56.5,51.8,48.4,86,68,53,30.19,30.08,20,3,0,0.00
2013-6-9,70.5,56.6,47.9,52.5,48.7,44.9,91,77,49,30.13,30.02,14,1,0,0.00
2013-6-10,68.2,54.8,40.6,52.2,46.2,38.7,94,74,52,30.06,29.92,18,2,0,0.00
2013-6-11,64.3,55.1,47.9,53.3,49.1,44.1,91,80,60,30.14,29.99,16,1,0,0.16
2013-6-12,63.4,54.3,50.3,54.6,50.0,47.8,92,86,63,30.17,30.13,10,0,0,0.14
2013-6-13,65.8,57.4,51.6,57.1,51.7,49.1,93,82,62,30.28,30.15,18,1,0,0.22
2013-6-14,68.8,57.9,48.4,54.7,51.1,46.3,93,79,58,30.28,30.00,9,0,0,0.00
2013-6-15,77.8,57.9,45.2,58.5,50.7,43.6,96,79,42,30.02,29.89,19,2,0,0.00
2013-6-16,71.0,61.5,52.6,58.8,54.3,50.0,92,78,62,30.11,30.02,14,2,0,0.00
2013-6-17,76.5,60.2,57.2,58.0,54.3,47.2,89,82,38,30.10,29.93,20,1,0,0.00
2013-6-18,67.4,57.9,49.4,58.6,52.5,47.5,95,83,55,29.99,29.93,18,1,0,0.29
2013-6-19,66.3,58.1,50.5,56.0,52.0,48.9,96,81,60,30.07,29.94,14,1,0,0.00
2013-6-20,65.5,57.4,53.0,54.5,51.5,49.5,91,81,60,30.14,30.02,16,1,0,0.01
2013-6-21,69.6,59.4,53.0,57.5,53.7,50.7,95,82,59,30.17,30.12,11,1,0,0.01
2013-6-22,80.7,64.4,47.7,58.6,52.2,46.1,96,70,33,30.13,29.84,11,1,0,0.00
2013-6-23,69.7,63.2,58.9,62.2,58.6,55.6,93,85,71,29.85,29.62,14,0,0,0.15
2013-6-24,69.9,60.6,56.3,59.7,56.8,53.7,94,88,63,29.70,29.59,15,1,0,0.60
2013-6-25,70.2,62.0,56.9,61.6,57.7,54.9,95,86,65,29.84,29.66,21,2,0,0.14
2013-6-26,71.8,64.6,59.4,62.5,59.3,56.3,91,83,68,30.05,29.84,16,2,0,0.01
2013-6-27,76.5,66.3,60.9,66.4,62.1,59.0,95,87,65,30.17,30.00,14,1,0,0.10
2013-6-28,88.5,72.0,61.0,70.3,63.2,58.0,94,76,52,30.16,30.03,15,2,0,0.00
2013-6-29,86.8,72.6,61.0,64.1,60.8,57.4,90,69,41,30.11,29.96,13,1,0,0.00
2013-6-30,92.3,74.5,59.0,71.1,64.0,56.8,94,72,40,30.00,29.84,16,2,0,0.00
2013-7-1,84.8,71.2,62.8,70.2,63.3,59.1,89,77,58,30.06,29.93,20,3,0,0.00
2013-7-2,79.2,66.6,58.2,65.1,58.9,55.6,92,77,57,30.10,30.03,16,2,0,0.00
2013-7-3,70.4,58.9,53.3,56.9,53.6,50.6,92,83,58,30.16,30.07,16,1,0,0.00
2013-7-4,70.9,61.1,50.1,56.4,53.0,48.2,93,76,59,30.14,30.06,19,3,0,0.00
2013-7-5,72.8,60.9,49.9,58.6,53.7,47.6,93,78,58,30.08,29.96,15,1,0,0.00
2013-7-6,79.0,63.2,51.4,63.3,55.9,48.9,92,78,56,29.99,29.85,18,2,0,0.00
2013-7-7,72.7,62.2,54.5,60.7,55.8,51.9,92,80,64,30.00,29.90,18,2,0,0.00
2013-7-8,79.6,62.4,56.8,64.0,55.2,52.1,89,78,55,30.10,30.00,14,1,0,0.00
2013-7-9,82.3,66.9,55.5,67.1,59.6,53.5,94,79,57,30.11,29.99,21,2,0,0.00
2013-7-10,72.5,61.8,52.6,58.3,53.3,48.6,91,75,56,30.10,29.98,19,3,0,0.00
2013-7-11,72.2,57.0,46.4,54.0,49.0,44.2,94,76,50,30.09,29.98,17,1,0,0.00
2013-7-12,71.0,58.3,45.0,56.8,50.7,43.1,94,77,57,30.14,30.02,14,1,0,0.00
2013-7-13,80.8,62.4,43.0,58.2,49.9,41.3,95,68,33,30.19,30.06,16,1,0,0.00
2013-7-14,84.0,65.8,49.6,60.4,53.2,47.7,94,68,33,30.12,29.97,18,2,0,0.00
2013-7-15,84.0,67.9,48.3,58.9,51.4,45.2,93,61,29,30.03,29.82,16,2,0,0.00
2013-7-16,87.8,69.7,53.2,63.4,56.5,50.2,92,65,42,29.97,29.76,16,1,0,0.00
2013-7-17,73.3,64.0,55.7,60.1,57.4,53.1,92,80,60,30.20,29.97,15,1,0,0.02
2013-7-18,78.8,63.1,55.5,63.7,56.3,52.9,92,79,58,30.23,30.09,18,2,0,0.00
2013-7-19,75.4,62.7,53.2,63.1,56.2,50.7,92,80,63,30.17,30.03,18,3,0,0.00
2013-7-20,75.0,62.5,56.4,61.8,56.0,53.1,89,80,62,30.10,29.97,18,3,0,0.00
2013-7-21,74.3,63.0,56.3,63.1,56.7,53.0,90,81,66,30.00,29.92,16,3,0,0.00
2013-7-22,76.4,64.6,56.8,63.6,57.3,53.0,90,78,62,30.06,29.97,15,2,0,0.00
2013-7-23,84.8,62.7,55.8,67.3,57.5,53.8,94,85,53,30.07,29.93,15,1,0,0.00
2013-7-24,81.2,65.3,55.4,65.8,57.9,52.6,92,78,57,30.08,29.97,16,2,0,0.00
2013-7-25,82.3,65.5,52.0,64.9,56.5,49.7,92,75,53,30.12,30.03,19,3,0,0.00
2013-7-26,77.7,63.6,50.5,62.4,54.9,48.8,94,75,49,30.17,30.08,22,3,0,0.00
2013-7-27,73.3,61.8,52.6,59.0,53.8,49.8,91,76,56,30.18,30.03,18,3,0,0.00
2013-7-28,66.5,57.0,52.9,57.6,52.9,49.8,91,86,69,30.06,29.99,15,1,0,0.00
2013-7-29,75.2,63.4,57.5,61.1,55.6,53.0,88,76,59,30.04,29.94,12,2,0,0.00
2013-7-30,74.5,63.3,57.6,62.0,57.1,53.9,89,81,63,30.16,30.04,14,2,0,0.00
2013-7-31,71.0,62.1,57.7,61.4,57.2,54.7,92,84,69,30.13,30.01,16,2,0,0.00
2013-8-1,67.4,61.3,57.2,59.1,56.5,54.4,93,85,73,30.10,30.06,11,1,0,0.01
2013-8-2,69.5,62.1,53.0,60.4,56.9,51.3,95,84,69,30.14,30.09,10,1,0,0.00
2013-8-3,79.2,67.6,59.9,63.6,59.7,57.6,94,77,56,30.12,30.01,14,2,0,0.00
2013-8-4,84.6,68.4,57.0,68.6,61.2,55.4,95,79,56,30.04,29.91,20,2,0,0.00
2013-8-5,79.6,67.7,58.0,66.1,60.1,54.8,93,78,60,30.03,29.92,16,2,0,0.00
2013-8-6,84.3,66.9,54.7,64.8,57.8,52.4,93,75,48,30.03,29.90,11,2,0,0.00
2013-8-7,78.2,64.2,57.9,64.4,58.4,55.3,92,82,62,30.06,29.96,18,2,0,0.00
2013-8-8,75.1,63.3,55.8,65.6,58.6,53.7,94,85,68,30.06,29.93,18,2,0,0.00
2013-8-9,72.4,62.4,53.5,63.7,57.9,51.5,94,85,74,29.98,29.86,15,2,0,0.00
2013-8-10,73.3,62.8,59.4,63.3,58.8,56.9,92,87,68,30.05,29.92,14,2,0,0.01
2013-8-11,71.1,63.6,59.5,60.8,57.9,55.6,91,82,68,30.08,30.00,11,1,0,0.00
2013-8-12,78.3,65.8,57.6,60.7,57.4,54.3,92,76,50,30.10,30.01,16,2,0,0.00
2013-8-13,84.4,69.6,51.1,60.3,55.3,33.2,95,65,18,30.12,29.91,10,1,0,0.00
2013-8-14,81.7,65.1,54.2,63.9,58.2,52.5,96,81,42,29.98,29.91,15,1,0,0.02
2013-8-15,71.9,66.2,62.5,67.3,63.8,60.3,95,92,84,29.99,29.92,9,0,0,0.15
2013-8-16,83.5,70.0,61.9,69.0,62.5,52.9,95,79,52,30.05,29.96,20,2,0,0.00
2013-8-17,77.3,66.7,58.5,64.4,60.4,56.4,94,81,60,30.09,30.03,15,2,0,0.00
2013-8-18,78.5,65.4,60.3,62.8,59.3,57.0,92,82,55,30.14,30.05,16,1,0,0.00
2013-8-19,76.7,64.8,54.4,62.6,58.3,53.0,96,81,55,30.12,30.07,19,2,0,0.00
2013-8-20,81.6,64.9,49.1,59.2,53.8,47.7,96,71,37,30.16,30.01,12,1,0,0.00
2013-8-21,86.6,69.0,49.6,58.8,53.6,47.6,94,63,34,30.04,29.87,15,1,0,0.00
2013-8-22,78.8,66.5,54.2,64.8,57.6,52.2,93,75,53,29.90,29.84,13,1,0,0.00
2013-8-23,74.9,63.9,61.8,61.6,58.9,58.0,90,84,60,29.93,29.87,13,1,0,0.00
2013-8-24,74.8,65.6,59.8,60.4,57.8,53.2,94,77,51,29.92,29.86,13,1,0,0.01
2013-8-25,69.0,61.5,50.6,61.2,56.6,49.2,96,85,71,29.94,29.88,6,0,0,0.04
2013-8-26,76.3,65.4,60.4,60.9,59.1,52.8,94,82,46,29.96,29.87,19,2,0,0.04
2013-8-27,82.8,67.8,61.2,65.5,61.8,59.3,95,82,51,29.96,29.79,16,1,0,0.07
2013-8-28,79.5,68.6,60.9,66.4,62.9,59.5,96,83,56,29.91,29.83,13,1,0,0.13
2013-8-29,77.0,67.9,63.3,71.6,64.5,61.8,96,89,73,30.05,29.84,20,1,0,0.33
2013-8-30,80.0,71.2,59.6,64.9,61.5,57.6,96,73,50,30.15,30.03,12,1,12,0.03
2013-8-31,87.2,68.4,52.5,62.8,59.0,51.4,97,75,42,30.06,29.81,17,1,8,0.29
2013-9-1,81.8,67.6,56.7,63.9,59.0,54.9,95,76,50,29.91,29.80,14,2,0,0.00
2013-9-2,77.7,65.2,58.7,64.8,59.1,56.1,92,82,60,29.93,29.87,15,0,0,0.04
2013-9-3,80.3,66.8,59.7,64.1,59.8,52.6,96,80,43,30.02,29.92,14,1,0,0.33
2013-9-4,73.0,64.1,56.9,64.6,60.2,55.3,96,88,73,30.06,29.99,10,1,0,0.05
2013-9-5,72.1,64.7,60.9,64.8,61.5,59.2,95,90,76,30.06,29.94,11,1,0,1.23
2013-9-6,68.8,62.4,59.7,64.1,60.4,58.3,96,93,80,30.13,29.99,10,1,0,1.38
2013-9-7,78.7,67.1,58.2,65.3,61.0,57.0,97,82,61,30.12,29.97,14,1,0,0.00
2013-9-8,83.3,67.4,55.9,67.5,61.2,54.4,97,82,50,30.10,29.99,13,1,0,0.00
2013-9-9,81.7,67.2,60.5,69.2,62.3,58.5,93,85,64,30.06,29.93,11,1,0,0.00
2013-9-10,85.9,69.3,59.0,68.2,62.5,57.7,96,81,52,29.96,29.81,12,1,0,0.00
2013-9-11,88.7,68.0,57.4,72.3,62.4,56.0,96,84,54,29.97,29.85,15,1,0,0.00
2013-9-12,75.0,64.9,59.6,65.9,60.3,57.0,92,86,71,30.01,29.92,15,2,0,0.00
2013-9-13,67.3,63.3,59.9,62.4,60.2,58.1,94,90,83,29.98,29.86,11,1,0,0.00
2013-9-14,77.1,66.2,61.3,66.5,61.9,59.4,95,87,68,29.88,29.72,7,0,0,0.00
2013-9-15,65.5,63.2,61.3,63.1,60.8,59.3,96,92,85,29.87,29.73,9,0,0,0.08
2013-9-16,68.5,62.0,58.5,64.2,59.8,57.0,96,93,83,29.96,29.86,11,1,0,0.45
2013-9-17,67.2,58.5,50.4,59.5,54.6,49.6,98,87,66,29.99,29.88,11,1,0,0.12
2013-9-18,72.8,59.6,52.2,58.8,54.0,50.9,97,83,50,30.10,29.99,11,0,0,0.03
2013-9-19,81.5,54.3,46.6,60.2,49.8,45.5,97,88,33,30.03,29.77,11,0,0,0.00
2013-9-20,70.1,58.3,48.7,59.2,54.5,47.5,97,88,62,29.78,29.63,16,1,0,0.06
2013-9-21,68.1,58.7,50.9,59.7,55.8,49.8,98,91,70,29.76,29.67,10,0,0,0.06
2013-9-22,60.7,57.6,55.1,58.4,55.3,53.7,96,92,83,29.83,29.62,21,2,0,0.67
2013-9-23,62.9,57.2,52.6,58.5,55.1,51.3,96,93,80,30.00,29.83,10,0,0,0.26
2013-9-24,63.2,53.4,50.3,54.1,51.4,48.8,97,93,69,29.99,29.86,16,0,0,0.71
2013-9-25,60.5,52.2,45.9,54.0,49.8,44.4,98,92,75,30.05,29.86,4,0,0,0.04
2013-9-26,65.0,48.5,42.5,55.3,46.6,41.7,98,94,65,30.17,30.05,11,0,0,0.04
2013-9-27,55.3,51.9,43.7,54.0,50.8,42.8,98,96,93,30.17,29.88,20,2,0,0.76
2013-9-28,61.2,56.9,52.2,60.0,55.7,51.4,97,96,91,29.88,29.46,15,4,0,1.99
2013-9-29,55.3,53.7,50.2,54.2,52.5,48.3,97,95,90,29.64,29.27,28,4,0,1.35
2013-9-30,60.0,53.5,48.7,54.0,50.2,46.8,96,89,73,29.98,29.54,25,3,0,0.52
2013-10-1,57.8,52.0,46.9,52.9,49.3,45.8,97,91,77,30.19,29.95,12,1,0,0.28
2013-10-2,53.7,49.1,46.8,51.0,47.8,45.7,97,95,89,30.19,30.06,8,0,0,0.39
2013-10-3,59.6,49.6,42.3,50.9,46.8,41.1,98,91,69,30.44,30.19,8,0,0,0.00
2013-10-4,69.7,50.6,40.7,55.7,46.6,39.9,98,88,55,30.47,30.34,5,0,0,0.01
2013-10-5,74.4,54.0,43.0,53.2,47.7,42.0,98,83,37,30.36,30.13,4,0,0,0.01
2013-10-6,72.5,54.7,39.9,53.8,47.3,39.1,99,79,44,30.14,29.93,16,2,0,0.00
2013-10-7,60.8,54.0,51.5,53.7,51.3,48.4,96,91,67,30.12,29.96,20,1,0,0.30
2013-10-8,57.9,49.9,41.3,53.2,47.9,40.2,97,93,72,30.12,29.96,22,1,0,0.17
2013-10-9,61.8,45.6,38.4,51.1,43.1,37.7,99,92,67,30.13,29.97,7,0,0,0.01
2013-10-10,56.5,50.3,45.7,53.1,48.3,44.3,96,93,84,30.09,29.96,7,0,0,0.04
2013-10-11,58.5,51.5,46.3,51.9,48.4,45.0,96,89,70,30.15,30.08,6,0,0,0.00
2013-10-12,57.3,49.5,41.1,50.1,46.6,40.0,97,90,72,30.20,30.07,7,0,0,0.11
2013-10-13,60.5,47.6,39.7,51.9,44.7,38.8,98,90,68,30.34,30.19,10,1,0,0.00
2013-10-14,63.7,49.3,37.7,50.7,44.4,36.9,98,85,59,30.40,30.32,13,1,0,0.01
2013-10-15,67.9,49.2,36.7,50.7,43.6,35.7,98,84,44,30.37,30.16,4,0,0,0.00
2013-10-16,57.6,48.2,37.6,51.8,45.7,36.8,98,91,80,30.19,30.13,16,1,0,0.00
2013-10-17,61.0,52.1,46.7,53.0,48.7,44.8,95,88,74,30.26,30.18,12,1,0,0.00
2013-10-18,68.3,51.3,39.4,53.9,46.6,38.6,98,86,51,30.22,30.10,9,0,0,0.01
2013-10-19,66.6,50.3,40.7,54.3,46.9,39.9,98,89,61,30.17,30.10,7,0,0,0.00
2013-10-20,55.1,48.8,45.9,50.3,46.5,44.5,96,92,82,30.18,30.10,10,1,0,0.00
2013-10-21,66.8,51.9,45.8,54.7,48.0,44.1,96,87,65,30.13,30.02,7,0,0,0.00
2013-10-22,69.8,52.9,44.6,57.3,49.3,43.2,96,88,63,30.08,29.97,4,0,0,0.00
2013-10-23,66.2,50.6,42.4,57.1,48.3,41.5,98,92,71,30.03,29.96,11,0,0,0.01
2013-10-24,57.4,51.1,47.3,53.9,49.2,46.2,96,93,86,30.13,30.01,12,1,0,0.00
2013-10-25,57.1,51.3,43.7,51.9,48.9,42.6,97,92,81,30.28,30.12,10,0,0,0.00
2013-10-26,56.2,49.9,44.0,48.7,46.2,43.2,97,87,74,30.30,30.17,14,1,0,0.00
2013-10-27,55.3,48.4,40.4,50.7,45.1,39.3,97,89,72,30.19,29.87,20,1,0,0.27
2013-10-28,61.1,47.0,35.8,46.1,39.9,34.1,98,79,46,29.94,29.82,15,0,0,0.01
2013-10-29,61.6,41.1,29.1,42.0,35.0,28.3,97,82,40,30.06,29.94,3,0,0,0.00
2013-10-30,55.0,43.7,30.1,45.0,37.9,29.2,97,81,61,30.18,30.05,10,1,0,0.01
2013-10-31,54.7,51.3,48.0,51.4,48.4,44.5,97,90,78,30.28,30.14,9,0,0,0.09
2013-11-1,61.3,52.2,46.5,53.0,49.2,45.7,98,90,72,30.29,29.89,17,1,0,0.23
2013-11-2,56.2,49.7,40.3,51.7,45.5,38.3,96,86,62,30.02,29.64,31,4,0,0.94
2013-11-3,50.4,44.1,38.7,45.7,41.9,37.9,97,92,79,30.14,30.01,9,0,0,0.08
2013-11-4,48.1,44.8,39.0,46.6,43.2,38.2,97,94,87,30.18,30.07,16,1,0,0.22
2013-11-5,55.3,50.1,46.5,51.6,48.3,45.7,97,93,80,30.25,30.06,13,1,13,0.14
2013-11-6,53.2,49.3,45.1,51.0,47.9,44.3,98,95,85,30.31,30.06,9,0,0,0.32
2013-11-7,54.0,51.0,47.5,52.5,48.9,45.4,97,93,77,30.10,29.82,19,2,0,0.85
2013-11-8,52.9,47.6,41.0,48.8,45.8,40.2,97,93,84,30.19,30.09,5,0,0,0.09
2013-11-9,48.1,44.2,40.2,45.3,42.8,39.4,98,95,87,30.15,30.06,4,0,0,0.03
2013-11-10,53.9,48.7,43.1,49.2,45.9,42.0,97,90,83,30.10,30.05,11,1,0,0.00
2013-11-11,59.6,49.7,43.9,51.0,46.5,42.7,97,89,69,30.16,30.01,7,0,0,0.00
2013-11-12,55.9,51.3,46.3,52.7,49.3,44.7,97,93,87,30.42,30.05,12,1,0,0.09
2013-11-13,57.7,47.6,41.3,50.8,46.0,40.5,98,95,75,30.48,30.31,6,0,0,0.01
2013-11-14,51.0,46.1,40.8,48.0,44.8,40.0,98,95,87,30.32,30.10,4,0,0,0.06
2013-11-15,49.3,44.7,40.1,47.8,43.5,39.2,98,95,89,30.10,29.50,16,1,0,0.75
2013-11-16,47.7,44.6,41.3,45.8,42.2,39.7,97,91,83,29.85,29.50,15,1,0,0.47
2013-11-17,51.4,47.6,42.8,49.5,46.0,41.9,97,94,90,29.94,29.84,13,1,0,0.23
2013-11-18,51.9,50.6,49.4,50.2,47.8,45.7,95,90,84,29.94,29.65,19,4,0,0.30
2013-11-19,52.0,45.3,31.5,50.8,42.8,30.2,97,91,79,30.04,29.66,12,1,0,0.46
2013-11-20,44.1,32.9,26.9,32.9,29.5,25.9,98,88,58,30.47,30.05,13,0,0,0.01
2013-11-21,44.7,33.3,23.9,30.2,26.7,22.4,96,78,52,30.63,30.47,15,0,0,0.00
2013-11-22,48.1,34.2,24.2,32.0,27.9,22.5,95,79,48,30.61,30.43,14,1,0,0.00
2013-11-23,54.1,33.8,22.5,35.7,28.7,21.3,97,84,43,30.44,30.18,6,0,0,0.00
2013-11-24,49.7,34.6,24.4,33.7,28.2,23.4,97,80,46,30.28,30.17,9,1,0,0.01
2013-11-25,49.9,38.0,30.1,33.9,30.6,27.1,94,76,52,30.34,30.27,9,1,0,0.00
2013-11-26,46.5,38.2,27.3,37.3,32.0,26.0,96,79,61,30.28,30.07,10,1,0,0.00
2013-11-27,53.9,38.8,32.2,40.0,35.5,30.8,97,88,56,30.07,29.94,7,0,0,0.00
2013-11-28,52.9,36.5,27.5,40.8,32.7,26.8,98,88,54,30.21,30.03,7,0,0,0.00
2013-11-29,44.5,35.6,28.6,41.6,34.0,27.6,98,94,83,30.34,30.20,3,0,0,0.02
2013-11-30,50.1,45.8,41.5,46.3,43.5,40.2,96,92,84,30.37,30.16,11,0,0,0.23
2013-12-1,55.2,51.2,46.6,54.7,50.2,44.4,98,96,92,30.16,29.89,21,2,0,2.44
2013-12-2,46.6,39.6,33.7,44.4,37.7,32.9,98,93,78,30.05,29.91,18,1,0,0.31
2013-12-3,40.8,34.4,26.3,36.0,32.1,25.3,98,91,74,30.31,30.05,11,0,0,0.00
2013-12-4,38.9,29.2,22.9,31.3,26.6,21.7,97,91,62,30.36,30.29,4,0,0,0.00
2013-12-5,33.5,26.9,21.2,27.5,23.0,18.4,96,86,54,30.33,30.15,6,0,0,0.00
2013-12-6,32.5,28.8,25.1,26.6,20.5,12.3,92,71,56,30.16,30.02,11,1,0,0.00
2013-12-7,31.7,22.1,13.0,15.3,13.0,11.0,93,69,46,30.45,30.13,8,0,0,0.00
2013-12-8,30.0,19.5,10.6,19.9,15.1,8.7,93,84,63,30.60,30.45,7,0,0,0.00
2013-12-9,29.9,23.9,14.8,24.7,19.5,13.1,94,83,71,30.61,30.52,8,0,0,0.00
2013-12-10,34.4,31.4,27.7,33.4,30.0,24.6,97,94,87,30.53,30.40,9,0,0,0.02
2013-12-11,35.4,32.4,29.2,34.1,31.5,28.5,98,97,93,30.41,30.19,6,0,0,0.00
2013-12-12,40.7,33.4,30.3,39.4,30.8,28.0,98,90,81,30.20,30.09,12,1,12,0.07
2013-12-13,46.4,42.8,39.4,45.0,41.9,38.2,98,96,94,30.44,30.18,8,0,8,0.02
2013-12-14,43.9,41.1,38.8,42.6,40.3,38.2,98,97,94,30.45,30.35,9,0,0,0.00
2013-12-15,46.8,43.2,40.9,44.9,42.2,39.8,98,96,92,30.48,30.39,7,0,0,0.07
2013-12-16,44.2,43.0,40.9,43.1,42.0,40.4,98,96,93,30.48,30.25,8,1,0,0.00
2013-12-17,41.9,39.0,37.1,40.8,38.1,36.6,98,97,94,30.26,30.17,8,1,0,0.00
2013-12-18,44.7,38.3,28.6,43.1,37.6,28.1,98,98,93,30.18,30.05,8,0,3,0.08
2013-12-19,38.9,31.8,26.8,35.6,30.6,26.2,99,95,80,30.34,30.13,6,0,0,0.01
2013-12-20,40.8,36.4,33.0,40.3,35.5,32.2,98,97,94,30.22,29.85,19,3,0,0.47
2013-12-21,48.8,43.4,40.8,47.8,42.8,40.3,99,98,92,30.20,29.91,7,0,0,0.05
2013-12-22,50.7,48.1,45.3,48.8,47.1,44.7,98,96,93,30.34,30.19,10,1,0,0.02
2013-12-23,52.2,46.7,36.2,50.2,45.8,35.7,98,97,86,30.54,30.26,15,1,0,0.41
2013-12-24,42.4,38.4,33.7,42.1,38.1,33.3,100,99,98,30.62,30.50,10,0,10,0.00
2013-12-25,41.8,36.7,33.5,39.1,35.6,33.0,99,96,88,30.50,30.38,9,1,9,0.00
2013-12-26,37.1,34.3,32.5,36.1,33.8,32.1,99,98,95,30.40,30.22,7,1,5,0.01
2013-12-27,40.1,35.9,33.1,38.2,35.1,32.6,99,97,91,30.40,30.18,11,1,0,0.01
2013-12-28,47.7,39.1,31.9,44.4,37.8,31.4,98,95,81,30.51,30.39,8,0,0,0.00
2013-12-29,42.7,38.2,33.2,39.5,37.2,32.6,99,96,88,30.48,30.30,4,0,0,0.00
2013-12-30,43.9,38.5,36.5,40.4,37.5,35.7,98,96,86,30.30,30.16,11,0,0,0.00
2013-12-31,48.3,43.3,38.8,44.6,41.9,38.0,98,95,87,30.36,30.23,6,0,0,0.02
2014-1-1,46.2,42.9,39.7,44.0,42.0,39.1,99,97,90,30.37,30.25,8,0,0,0.00
2014-1-2,48.6,43.2,39.6,43.6,41.1,38.2,98,93,80,30.26,30.01,12,1,0,0.19